sensor_id;sensor_type;location;lat;lon;timestamp;P1;durP1;ratioP1;P2;durP2;ratioP2
20880;SDS011;10600;53.096;8.802;2024-02-26T00:00:55;64.85;;;34.15;;
20880;SDS011;10600;53.096;8.802;2024-02-26T00:01:55;62.40;;;33.30;;
20880;SDS011;10600;53.096;8.802;2024-02-26T00:02:56;65.22;;;33.00;;
20880;SDS011;10600;53.096;8.802;2024-02-26T00:03:56;62.25;;;32.28;;
20880;SDS011;10600;53.096;8.802;2024-02-26T00:04:59;62.38;;;32.88;;
20880;SDS011;10600;53.096;8.802;2024-02-26T00:06:00;63.88;;;32.38;;
20880;SDS011;10600;53.096;8.802;2024-02-26T00:07:01;64.13;;;31.90;;
20880;SDS011;10600;53.096;8.802;2024-02-26T00:08:02;63.92;;;32.42;;
20880;SDS011;10600;53.096;8.802;2024-02-26T00:09:03;67.88;;;34.50;;
20880;SDS011;10600;53.096;8.802;2024-02-26T00:10:06;63.10;;;32.85;;
20880;SDS011;10600;53.096;8.802;2024-02-26T00:11:07;62.05;;;33.05;;
20880;SDS011;10600;53.096;8.802;2024-02-26T00:12:07;67.50;;;34.70;;
20880;SDS011;10600;53.096;8.802;2024-02-26T00:13:08;63.42;;;33.03;;
20880;SDS011;10600;53.096;8.802;2024-02-26T00:14:08;65.03;;;34.10;;
20880;SDS011;10600;53.096;8.802;2024-02-26T00:15:09;65.93;;;32.83;;
20880;SDS011;10600;53.096;8.802;2024-02-26T00:16:10;66.88;;;35.05;;
20880;SDS011;10600;53.096;8.802;2024-02-26T00:17:10;66.50;;;32.80;;
20880;SDS011;10600;53.096;8.802;2024-02-26T00:18:11;62.97;;;31.95;;
20880;SDS011;10600;53.096;8.802;2024-02-26T00:19:12;69.80;;;34.17;;
20880;SDS011;10600;53.096;8.802;2024-02-26T00:20:12;61.78;;;31.85;;
20880;SDS011;10600;53.096;8.802;2024-02-26T00:21:13;65.38;;;32.67;;
20880;SDS011;10600;53.096;8.802;2024-02-26T00:22:14;64.45;;;32.22;;
20880;SDS011;10600;53.096;8.802;2024-02-26T00:23:15;65.70;;;33.03;;
20880;SDS011;10600;53.096;8.802;2024-02-26T00:24:16;63.20;;;33.38;;
20880;SDS011;10600;53.096;8.802;2024-02-26T00:25:16;66.97;;;33.15;;
20880;SDS011;10600;53.096;8.802;2024-02-26T00:26:17;63.30;;;33.97;;
20880;SDS011;10600;53.096;8.802;2024-02-26T00:27:17;65.03;;;32.90;;
20880;SDS011;10600;53.096;8.802;2024-02-26T00:28:18;67.50;;;34.60;;
20880;SDS011;10600;53.096;8.802;2024-02-26T00:29:20;70.68;;;34.80;;
20880;SDS011;10600;53.096;8.802;2024-02-26T00:30:21;71.55;;;35.05;;
20880;SDS011;10600;53.096;8.802;2024-02-26T00:31:23;65.32;;;31.77;;
20880;SDS011;10600;53.096;8.802;2024-02-26T00:32:23;62.25;;;33.50;;
20880;SDS011;10600;53.096;8.802;2024-02-26T00:33:24;67.95;;;34.50;;
20880;SDS011;10600;53.096;8.802;2024-02-26T00:34:24;76.75;;;36.10;;
20880;SDS011;10600;53.096;8.802;2024-02-26T00:35:25;80.30;;;36.53;;
20880;SDS011;10600;53.096;8.802;2024-02-26T00:36:25;70.40;;;35.83;;
20880;SDS011;10600;53.096;8.802;2024-02-26T00:37:26;73.90;;;35.33;;
20880;SDS011;10600;53.096;8.802;2024-02-26T00:38:27;73.43;;;35.83;;
20880;SDS011;10600;53.096;8.802;2024-02-26T00:39:27;71.55;;;34.95;;
20880;SDS011;10600;53.096;8.802;2024-02-26T00:40:28;73.20;;;35.00;;
20880;SDS011;10600;53.096;8.802;2024-02-26T00:41:29;76.40;;;35.25;;
20880;SDS011;10600;53.096;8.802;2024-02-26T00:42:30;73.20;;;36.63;;
20880;SDS011;10600;53.096;8.802;2024-02-26T00:43:30;72.50;;;35.08;;
20880;SDS011;10600;53.096;8.802;2024-02-26T00:44:31;73.28;;;35.58;;
20880;SDS011;10600;53.096;8.802;2024-02-26T00:45:32;73.85;;;35.83;;
20880;SDS011;10600;53.096;8.802;2024-02-26T00:46:32;76.85;;;35.90;;
20880;SDS011;10600;53.096;8.802;2024-02-26T00:47:33;73.55;;;36.85;;
20880;SDS011;10600;53.096;8.802;2024-02-26T00:48:33;77.75;;;36.13;;
20880;SDS011;10600;53.096;8.802;2024-02-26T00:49:35;81.15;;;36.78;;
20880;SDS011;10600;53.096;8.802;2024-02-26T00:50:36;76.28;;;35.72;;
20880;SDS011;10600;53.096;8.802;2024-02-26T00:51:37;78.47;;;36.95;;
20880;SDS011;10600;53.096;8.802;2024-02-26T00:52:37;77.95;;;38.22;;
20880;SDS011;10600;53.096;8.802;2024-02-26T00:53:38;77.93;;;36.58;;
20880;SDS011;10600;53.096;8.802;2024-02-26T00:54:39;80.80;;;36.20;;
20880;SDS011;10600;53.096;8.802;2024-02-26T00:55:39;75.57;;;35.40;;
20880;SDS011;10600;53.096;8.802;2024-02-26T00:56:40;72.40;;;36.13;;
20880;SDS011;10600;53.096;8.802;2024-02-26T00:57:40;77.40;;;35.92;;
20880;SDS011;10600;53.096;8.802;2024-02-26T00:58:41;78.25;;;37.45;;
20880;SDS011;10600;53.096;8.802;2024-02-26T00:59:41;75.35;;;36.75;;
20880;SDS011;10600;53.096;8.802;2024-02-26T01:00:42;81.93;;;37.28;;
20880;SDS011;10600;53.096;8.802;2024-02-26T01:01:42;70.93;;;35.15;;
20880;SDS011;10600;53.096;8.802;2024-02-26T01:02:43;83.90;;;38.38;;
20880;SDS011;10600;53.096;8.802;2024-02-26T01:03:46;83.57;;;37.30;;
20880;SDS011;10600;53.096;8.802;2024-02-26T01:04:47;84.30;;;36.67;;
20880;SDS011;10600;53.096;8.802;2024-02-26T01:05:47;80.50;;;36.05;;
20880;SDS011;10600;53.096;8.802;2024-02-26T01:06:48;79.82;;;35.70;;
20880;SDS011;10600;53.096;8.802;2024-02-26T01:07:48;87.65;;;37.35;;
20880;SDS011;10600;53.096;8.802;2024-02-26T01:08:49;80.68;;;36.50;;
20880;SDS011;10600;53.096;8.802;2024-02-26T01:09:50;84.75;;;37.10;;
20880;SDS011;10600;53.096;8.802;2024-02-26T01:10:51;88.93;;;36.95;;
20880;SDS011;10600;53.096;8.802;2024-02-26T01:11:51;80.65;;;36.00;;
20880;SDS011;10600;53.096;8.802;2024-02-26T01:12:52;87.43;;;38.47;;
20880;SDS011;10600;53.096;8.802;2024-02-26T01:13:52;86.85;;;37.85;;
20880;SDS011;10600;53.096;8.802;2024-02-26T01:14:56;84.70;;;37.63;;
20880;SDS011;10600;53.096;8.802;2024-02-26T01:15:57;83.28;;;36.42;;
20880;SDS011;10600;53.096;8.802;2024-02-26T01:16:57;77.38;;;35.97;;
20880;SDS011;10600;53.096;8.802;2024-02-26T01:17:58;73.95;;;35.92;;
20880;SDS011;10600;53.096;8.802;2024-02-26T01:18:58;81.20;;;36.13;;
20880;SDS011;10600;53.096;8.802;2024-02-26T01:19:59;80.18;;;36.13;;
20880;SDS011;10600;53.096;8.802;2024-02-26T01:20:59;77.75;;;36.47;;
20880;SDS011;10600;53.096;8.802;2024-02-26T01:22:00;81.10;;;36.67;;
20880;SDS011;10600;53.096;8.802;2024-02-26T01:23:00;77.57;;;34.97;;
20880;SDS011;10600;53.096;8.802;2024-02-26T01:24:01;81.47;;;34.13;;
20880;SDS011;10600;53.096;8.802;2024-02-26T01:25:01;77.45;;;36.22;;
20880;SDS011;10600;53.096;8.802;2024-02-26T01:26:02;81.80;;;37.03;;
20880;SDS011;10600;53.096;8.802;2024-02-26T01:27:04;76.53;;;35.28;;
20880;SDS011;10600;53.096;8.802;2024-02-26T01:28:06;74.93;;;34.28;;
20880;SDS011;10600;53.096;8.802;2024-02-26T01:29:07;78.45;;;34.72;;
20880;SDS011;10600;53.096;8.802;2024-02-26T01:30:07;75.78;;;34.53;;
20880;SDS011;10600;53.096;8.802;2024-02-26T01:31:09;65.85;;;32.67;;
20880;SDS011;10600;53.096;8.802;2024-02-26T01:32:10;82.32;;;34.08;;
20880;SDS011;10600;53.096;8.802;2024-02-26T01:33:10;70.40;;;35.22;;
20880;SDS011;10600;53.096;8.802;2024-02-26T01:34:11;76.22;;;35.42;;
20880;SDS011;10600;53.096;8.802;2024-02-26T01:35:11;82.90;;;37.17;;
20880;SDS011;10600;53.096;8.802;2024-02-26T01:36:12;80.40;;;34.85;;
20880;SDS011;10600;53.096;8.802;2024-02-26T01:37:13;76.03;;;35.20;;
20880;SDS011;10600;53.096;8.802;2024-02-26T01:38:13;77.53;;;34.55;;
20880;SDS011;10600;53.096;8.802;2024-02-26T01:39:14;83.28;;;35.30;;
20880;SDS011;10600;53.096;8.802;2024-02-26T01:40:14;77.68;;;34.47;;
20880;SDS011;10600;53.096;8.802;2024-02-26T01:41:19;75.80;;;34.42;;
20880;SDS011;10600;53.096;8.802;2024-02-26T01:42:20;81.60;;;33.65;;
20880;SDS011;10600;53.096;8.802;2024-02-26T01:43:20;78.05;;;34.78;;
20880;SDS011;10600;53.096;8.802;2024-02-26T01:44:22;73.60;;;32.40;;
20880;SDS011;10600;53.096;8.802;2024-02-26T01:45:23;71.28;;;33.00;;
20880;SDS011;10600;53.096;8.802;2024-02-26T01:46:26;77.43;;;35.35;;
20880;SDS011;10600;53.096;8.802;2024-02-26T01:47:27;75.03;;;33.03;;
20880;SDS011;10600;53.096;8.802;2024-02-26T01:48:28;81.88;;;34.47;;
20880;SDS011;10600;53.096;8.802;2024-02-26T01:49:30;84.30;;;36.17;;
20880;SDS011;10600;53.096;8.802;2024-02-26T01:50:30;73.00;;;33.17;;
20880;SDS011;10600;53.096;8.802;2024-02-26T01:51:31;80.10;;;34.63;;
20880;SDS011;10600;53.096;8.802;2024-02-26T01:52:33;77.80;;;33.42;;
20880;SDS011;10600;53.096;8.802;2024-02-26T01:53:33;80.22;;;34.70;;
20880;SDS011;10600;53.096;8.802;2024-02-26T01:54:35;86.90;;;35.65;;
20880;SDS011;10600;53.096;8.802;2024-02-26T01:55:37;82.80;;;35.03;;
20880;SDS011;10600;53.096;8.802;2024-02-26T01:56:38;76.32;;;33.17;;
20880;SDS011;10600;53.096;8.802;2024-02-26T01:57:41;80.85;;;33.70;;
20880;SDS011;10600;53.096;8.802;2024-02-26T01:58:45;80.82;;;32.63;;
20880;SDS011;10600;53.096;8.802;2024-02-26T01:59:46;87.15;;;35.33;;
20880;SDS011;10600;53.096;8.802;2024-02-26T02:00:47;81.32;;;34.50;;
20880;SDS011;10600;53.096;8.802;2024-02-26T02:01:48;85.25;;;34.60;;
20880;SDS011;10600;53.096;8.802;2024-02-26T02:02:52;85.93;;;34.83;;
20880;SDS011;10600;53.096;8.802;2024-02-26T02:03:55;78.82;;;33.63;;
20880;SDS011;10600;53.096;8.802;2024-02-26T02:04:57;86.55;;;35.40;;
20880;SDS011;10600;53.096;8.802;2024-02-26T02:05:58;79.68;;;33.70;;
20880;SDS011;10600;53.096;8.802;2024-02-26T02:06:59;77.72;;;32.80;;
20880;SDS011;10600;53.096;8.802;2024-02-26T02:08:00;68.72;;;33.33;;
20880;SDS011;10600;53.096;8.802;2024-02-26T02:09:01;72.38;;;32.15;;
20880;SDS011;10600;53.096;8.802;2024-02-26T02:10:06;78.80;;;34.65;;
20880;SDS011;10600;53.096;8.802;2024-02-26T02:11:07;79.65;;;35.05;;
20880;SDS011;10600;53.096;8.802;2024-02-26T02:12:11;76.47;;;31.95;;
20880;SDS011;10600;53.096;8.802;2024-02-26T02:13:11;85.47;;;35.92;;
20880;SDS011;10600;53.096;8.802;2024-02-26T02:14:12;91.00;;;34.25;;
20880;SDS011;10600;53.096;8.802;2024-02-26T02:15:13;82.28;;;33.95;;
20880;SDS011;10600;53.096;8.802;2024-02-26T02:16:13;83.32;;;34.75;;
20880;SDS011;10600;53.096;8.802;2024-02-26T02:17:14;83.80;;;34.67;;
20880;SDS011;10600;53.096;8.802;2024-02-26T02:18:14;80.70;;;34.35;;
20880;SDS011;10600;53.096;8.802;2024-02-26T02:19:15;83.18;;;34.05;;
20880;SDS011;10600;53.096;8.802;2024-02-26T02:20:16;82.93;;;34.00;;
20880;SDS011;10600;53.096;8.802;2024-02-26T02:21:18;88.47;;;36.00;;
20880;SDS011;10600;53.096;8.802;2024-02-26T02:22:18;81.15;;;32.95;;
20880;SDS011;10600;53.096;8.802;2024-02-26T02:23:19;77.22;;;33.20;;
20880;SDS011;10600;53.096;8.802;2024-02-26T02:24:20;85.18;;;33.80;;
20880;SDS011;10600;53.096;8.802;2024-02-26T02:25:20;93.47;;;33.75;;
20880;SDS011;10600;53.096;8.802;2024-02-26T02:26:21;82.30;;;32.97;;
20880;SDS011;10600;53.096;8.802;2024-02-26T02:27:21;81.05;;;33.53;;
20880;SDS011;10600;53.096;8.802;2024-02-26T02:28:23;74.57;;;31.92;;
20880;SDS011;10600;53.096;8.802;2024-02-26T02:29:25;91.20;;;33.55;;
20880;SDS011;10600;53.096;8.802;2024-02-26T02:30:29;80.88;;;33.10;;
20880;SDS011;10600;53.096;8.802;2024-02-26T02:31:30;83.78;;;33.10;;
20880;SDS011;10600;53.096;8.802;2024-02-26T02:32:31;86.70;;;33.97;;
20880;SDS011;10600;53.096;8.802;2024-02-26T02:33:32;86.68;;;35.13;;
20880;SDS011;10600;53.096;8.802;2024-02-26T02:34:34;81.03;;;33.60;;
20880;SDS011;10600;53.096;8.802;2024-02-26T02:35:35;88.15;;;33.50;;
20880;SDS011;10600;53.096;8.802;2024-02-26T02:36:47;82.30;;;34.20;;
20880;SDS011;10600;53.096;8.802;2024-02-26T02:37:49;90.03;;;35.17;;
20880;SDS011;10600;53.096;8.802;2024-02-26T02:38:52;97.38;;;35.00;;
20880;SDS011;10600;53.096;8.802;2024-02-26T02:39:52;91.55;;;35.30;;
20880;SDS011;10600;53.096;8.802;2024-02-26T02:40:54;94.82;;;35.33;;
20880;SDS011;10600;53.096;8.802;2024-02-26T02:41:55;96.88;;;34.60;;
20880;SDS011;10600;53.096;8.802;2024-02-26T02:42:55;90.38;;;34.58;;
20880;SDS011;10600;53.096;8.802;2024-02-26T02:43:56;92.75;;;36.10;;
20880;SDS011;10600;53.096;8.802;2024-02-26T02:44:57;98.93;;;33.40;;
20880;SDS011;10600;53.096;8.802;2024-02-26T02:45:58;93.25;;;33.25;;
20880;SDS011;10600;53.096;8.802;2024-02-26T02:46:59;100.60;;;37.60;;
20880;SDS011;10600;53.096;8.802;2024-02-26T02:47:59;101.85;;;35.88;;
20880;SDS011;10600;53.096;8.802;2024-02-26T02:49:00;92.32;;;36.33;;
20880;SDS011;10600;53.096;8.802;2024-02-26T02:50:01;92.10;;;34.58;;
20880;SDS011;10600;53.096;8.802;2024-02-26T02:51:01;93.97;;;35.17;;
20880;SDS011;10600;53.096;8.802;2024-02-26T02:52:02;100.22;;;36.20;;
20880;SDS011;10600;53.096;8.802;2024-02-26T02:53:03;97.88;;;36.70;;
20880;SDS011;10600;53.096;8.802;2024-02-26T02:54:03;87.55;;;34.80;;
20880;SDS011;10600;53.096;8.802;2024-02-26T02:55:04;91.15;;;34.45;;
20880;SDS011;10600;53.096;8.802;2024-02-26T02:56:05;88.82;;;33.83;;
20880;SDS011;10600;53.096;8.802;2024-02-26T02:57:05;96.60;;;35.85;;
20880;SDS011;10600;53.096;8.802;2024-02-26T02:58:06;106.45;;;36.67;;
20880;SDS011;10600;53.096;8.802;2024-02-26T02:59:06;88.32;;;34.78;;
20880;SDS011;10600;53.096;8.802;2024-02-26T03:00:07;91.88;;;35.55;;
20880;SDS011;10600;53.096;8.802;2024-02-26T03:01:09;93.90;;;36.13;;
20880;SDS011;10600;53.096;8.802;2024-02-26T03:02:09;107.30;;;36.70;;
20880;SDS011;10600;53.096;8.802;2024-02-26T03:03:10;98.22;;;34.08;;
20880;SDS011;10600;53.096;8.802;2024-02-26T03:04:10;95.63;;;35.92;;
20880;SDS011;10600;53.096;8.802;2024-02-26T03:05:12;106.25;;;36.53;;
20880;SDS011;10600;53.096;8.802;2024-02-26T03:06:13;98.45;;;35.75;;
20880;SDS011;10600;53.096;8.802;2024-02-26T03:07:13;88.18;;;34.30;;
20880;SDS011;10600;53.096;8.802;2024-02-26T03:08:14;106.05;;;36.70;;
20880;SDS011;10600;53.096;8.802;2024-02-26T03:09:14;107.90;;;35.85;;
20880;SDS011;10600;53.096;8.802;2024-02-26T03:10:15;102.03;;;37.85;;
20880;SDS011;10600;53.096;8.802;2024-02-26T03:11:15;110.72;;;38.20;;
20880;SDS011;10600;53.096;8.802;2024-02-26T03:12:16;98.40;;;36.70;;
20880;SDS011;10600;53.096;8.802;2024-02-26T03:13:18;87.13;;;35.42;;
20880;SDS011;10600;53.096;8.802;2024-02-26T03:14:18;107.88;;;35.83;;
20880;SDS011;10600;53.096;8.802;2024-02-26T03:15:19;96.18;;;36.13;;
20880;SDS011;10600;53.096;8.802;2024-02-26T03:16:19;94.18;;;35.22;;
20880;SDS011;10600;53.096;8.802;2024-02-26T03:17:20;110.20;;;37.17;;
20880;SDS011;10600;53.096;8.802;2024-02-26T03:18:21;98.80;;;37.55;;
20880;SDS011;10600;53.096;8.802;2024-02-26T03:19:21;93.30;;;35.50;;
20880;SDS011;10600;53.096;8.802;2024-02-26T03:20:22;103.78;;;35.83;;
20880;SDS011;10600;53.096;8.802;2024-02-26T03:21:23;112.53;;;37.42;;
20880;SDS011;10600;53.096;8.802;2024-02-26T03:22:25;96.18;;;36.05;;
20880;SDS011;10600;53.096;8.802;2024-02-26T03:23:25;97.93;;;36.47;;
20880;SDS011;10600;53.096;8.802;2024-02-26T03:24:26;102.45;;;37.00;;
20880;SDS011;10600;53.096;8.802;2024-02-26T03:25:26;97.78;;;36.35;;
20880;SDS011;10600;53.096;8.802;2024-02-26T03:26:27;105.15;;;37.38;;
20880;SDS011;10600;53.096;8.802;2024-02-26T03:27:28;103.82;;;36.85;;
20880;SDS011;10600;53.096;8.802;2024-02-26T03:28:28;102.93;;;37.58;;
20880;SDS011;10600;53.096;8.802;2024-02-26T03:29:29;101.85;;;37.65;;
20880;SDS011;10600;53.096;8.802;2024-02-26T03:30:29;116.40;;;38.20;;
20880;SDS011;10600;53.096;8.802;2024-02-26T03:31:30;97.22;;;35.20;;
20880;SDS011;10600;53.096;8.802;2024-02-26T03:32:30;111.82;;;37.63;;
20880;SDS011;10600;53.096;8.802;2024-02-26T03:33:31;108.20;;;37.72;;
20880;SDS011;10600;53.096;8.802;2024-02-26T03:34:32;104.80;;;36.33;;
20880;SDS011;10600;53.096;8.802;2024-02-26T03:35:36;105.22;;;37.42;;
20880;SDS011;10600;53.096;8.802;2024-02-26T03:36:36;100.38;;;34.92;;
20880;SDS011;10600;53.096;8.802;2024-02-26T03:37:37;103.38;;;36.55;;
20880;SDS011;10600;53.096;8.802;2024-02-26T03:38:37;94.65;;;35.47;;
20880;SDS011;10600;53.096;8.802;2024-02-26T03:39:38;110.60;;;39.42;;
20880;SDS011;10600;53.096;8.802;2024-02-26T03:40:39;103.07;;;37.15;;
20880;SDS011;10600;53.096;8.802;2024-02-26T03:41:39;102.97;;;38.28;;
20880;SDS011;10600;53.096;8.802;2024-02-26T03:42:40;94.50;;;34.72;;
20880;SDS011;10600;53.096;8.802;2024-02-26T03:43:40;105.13;;;36.80;;
20880;SDS011;10600;53.096;8.802;2024-02-26T03:44:41;101.20;;;38.72;;
20880;SDS011;10600;53.096;8.802;2024-02-26T03:45:41;117.30;;;37.92;;
20880;SDS011;10600;53.096;8.802;2024-02-26T03:46:42;107.30;;;37.30;;
20880;SDS011;10600;53.096;8.802;2024-02-26T03:47:43;97.55;;;35.05;;
20880;SDS011;10600;53.096;8.802;2024-02-26T03:48:44;105.25;;;37.63;;
20880;SDS011;10600;53.096;8.802;2024-02-26T03:49:44;106.32;;;38.33;;
20880;SDS011;10600;53.096;8.802;2024-02-26T03:50:45;95.35;;;37.13;;
20880;SDS011;10600;53.096;8.802;2024-02-26T03:51:45;99.45;;;35.00;;
20880;SDS011;10600;53.096;8.802;2024-02-26T03:52:46;110.53;;;39.35;;
20880;SDS011;10600;53.096;8.802;2024-02-26T03:53:46;115.72;;;40.78;;
20880;SDS011;10600;53.096;8.802;2024-02-26T03:54:47;118.53;;;40.13;;
20880;SDS011;10600;53.096;8.802;2024-02-26T03:55:47;104.38;;;38.10;;
20880;SDS011;10600;53.096;8.802;2024-02-26T03:56:49;109.80;;;38.65;;
20880;SDS011;10600;53.096;8.802;2024-02-26T03:57:49;112.57;;;38.22;;
20880;SDS011;10600;53.096;8.802;2024-02-26T03:58:53;105.63;;;38.75;;
20880;SDS011;10600;53.096;8.802;2024-02-26T03:59:54;104.55;;;37.40;;
20880;SDS011;10600;53.096;8.802;2024-02-26T04:00:54;117.30;;;40.17;;
20880;SDS011;10600;53.096;8.802;2024-02-26T04:01:55;102.53;;;38.85;;
20880;SDS011;10600;53.096;8.802;2024-02-26T04:02:55;108.20;;;37.70;;
20880;SDS011;10600;53.096;8.802;2024-02-26T04:03:56;106.78;;;37.22;;
20880;SDS011;10600;53.096;8.802;2024-02-26T04:04:56;106.20;;;38.25;;
20880;SDS011;10600;53.096;8.802;2024-02-26T04:05:57;109.47;;;39.50;;
20880;SDS011;10600;53.096;8.802;2024-02-26T04:06:57;111.95;;;39.53;;
20880;SDS011;10600;53.096;8.802;2024-02-26T04:07:58;101.95;;;37.60;;
20880;SDS011;10600;53.096;8.802;2024-02-26T04:08:59;106.93;;;38.35;;
20880;SDS011;10600;53.096;8.802;2024-02-26T04:09:59;102.03;;;36.47;;
20880;SDS011;10600;53.096;8.802;2024-02-26T04:11:00;100.32;;;37.20;;
20880;SDS011;10600;53.096;8.802;2024-02-26T04:12:07;101.00;;;36.63;;
20880;SDS011;10600;53.096;8.802;2024-02-26T04:13:08;108.40;;;38.47;;
20880;SDS011;10600;53.096;8.802;2024-02-26T04:14:08;108.80;;;39.75;;
20880;SDS011;10600;53.096;8.802;2024-02-26T04:15:11;111.03;;;38.20;;
20880;SDS011;10600;53.096;8.802;2024-02-26T04:16:12;104.13;;;37.55;;
20880;SDS011;10600;53.096;8.802;2024-02-26T04:17:12;111.90;;;38.42;;
20880;SDS011;10600;53.096;8.802;2024-02-26T04:18:13;104.82;;;37.38;;
20880;SDS011;10600;53.096;8.802;2024-02-26T04:19:14;100.93;;;38.03;;
20880;SDS011;10600;53.096;8.802;2024-02-26T04:20:15;110.55;;;39.78;;
20880;SDS011;10600;53.096;8.802;2024-02-26T04:21:16;103.67;;;37.67;;
20880;SDS011;10600;53.096;8.802;2024-02-26T04:22:17;105.97;;;39.97;;
20880;SDS011;10600;53.096;8.802;2024-02-26T04:23:17;113.63;;;39.28;;
20880;SDS011;10600;53.096;8.802;2024-02-26T04:24:18;103.55;;;38.00;;
20880;SDS011;10600;53.096;8.802;2024-02-26T04:25:19;102.45;;;38.35;;
20880;SDS011;10600;53.096;8.802;2024-02-26T04:26:19;111.47;;;39.50;;
20880;SDS011;10600;53.096;8.802;2024-02-26T04:27:20;104.65;;;38.65;;
20880;SDS011;10600;53.096;8.802;2024-02-26T04:28:20;108.68;;;38.25;;
20880;SDS011;10600;53.096;8.802;2024-02-26T04:29:21;113.03;;;39.35;;
20880;SDS011;10600;53.096;8.802;2024-02-26T04:30:21;113.68;;;40.17;;
20880;SDS011;10600;53.096;8.802;2024-02-26T04:31:22;108.78;;;40.03;;
20880;SDS011;10600;53.096;8.802;2024-02-26T04:32:22;113.97;;;39.83;;
20880;SDS011;10600;53.096;8.802;2024-02-26T04:33:23;110.40;;;38.80;;
20880;SDS011;10600;53.096;8.802;2024-02-26T04:34:24;112.97;;;40.72;;
20880;SDS011;10600;53.096;8.802;2024-02-26T04:35:25;112.93;;;39.15;;
20880;SDS011;10600;53.096;8.802;2024-02-26T04:36:25;105.13;;;39.28;;
20880;SDS011;10600;53.096;8.802;2024-02-26T04:37:26;111.60;;;40.70;;
20880;SDS011;10600;53.096;8.802;2024-02-26T04:38:30;105.93;;;37.40;;
20880;SDS011;10600;53.096;8.802;2024-02-26T04:39:31;99.90;;;39.05;;
20880;SDS011;10600;53.096;8.802;2024-02-26T04:40:31;107.65;;;39.63;;
20880;SDS011;10600;53.096;8.802;2024-02-26T04:41:32;107.85;;;39.95;;
20880;SDS011;10600;53.096;8.802;2024-02-26T04:42:32;98.85;;;39.22;;
20880;SDS011;10600;53.096;8.802;2024-02-26T04:43:33;100.00;;;39.35;;
20880;SDS011;10600;53.096;8.802;2024-02-26T04:44:34;116.93;;;40.42;;
20880;SDS011;10600;53.096;8.802;2024-02-26T04:45:34;115.30;;;41.22;;
20880;SDS011;10600;53.096;8.802;2024-02-26T04:46:35;104.38;;;38.58;;
20880;SDS011;10600;53.096;8.802;2024-02-26T04:47:35;103.28;;;38.72;;
20880;SDS011;10600;53.096;8.802;2024-02-26T04:48:36;93.22;;;37.75;;
20880;SDS011;10600;53.096;8.802;2024-02-26T04:49:39;108.55;;;39.58;;
20880;SDS011;10600;53.096;8.802;2024-02-26T04:50:39;95.22;;;39.85;;
20880;SDS011;10600;53.096;8.802;2024-02-26T04:51:40;99.50;;;38.95;;
20880;SDS011;10600;53.096;8.802;2024-02-26T04:52:41;106.30;;;37.45;;
20880;SDS011;10600;53.096;8.802;2024-02-26T04:53:42;106.07;;;38.58;;
20880;SDS011;10600;53.096;8.802;2024-02-26T04:54:42;102.13;;;39.47;;
20880;SDS011;10600;53.096;8.802;2024-02-26T04:55:43;100.88;;;39.85;;
20880;SDS011;10600;53.096;8.802;2024-02-26T04:56:43;102.50;;;40.13;;
20880;SDS011;10600;53.096;8.802;2024-02-26T04:57:44;101.38;;;38.50;;
20880;SDS011;10600;53.096;8.802;2024-02-26T04:58:44;102.75;;;38.05;;
20880;SDS011;10600;53.096;8.802;2024-02-26T04:59:45;103.32;;;38.65;;
20880;SDS011;10600;53.096;8.802;2024-02-26T05:00:45;101.80;;;39.05;;
20880;SDS011;10600;53.096;8.802;2024-02-26T05:01:46;106.03;;;39.90;;
20880;SDS011;10600;53.096;8.802;2024-02-26T05:02:47;113.18;;;38.67;;
20880;SDS011;10600;53.096;8.802;2024-02-26T05:03:47;111.57;;;39.90;;
20880;SDS011;10600;53.096;8.802;2024-02-26T05:04:48;97.40;;;38.72;;
20880;SDS011;10600;53.096;8.802;2024-02-26T05:05:48;116.18;;;40.15;;
20880;SDS011;10600;53.096;8.802;2024-02-26T05:06:49;96.15;;;38.25;;
20880;SDS011;10600;53.096;8.802;2024-02-26T05:07:49;105.63;;;40.60;;
20880;SDS011;10600;53.096;8.802;2024-02-26T05:08:50;115.25;;;41.58;;
20880;SDS011;10600;53.096;8.802;2024-02-26T05:09:50;103.38;;;37.60;;
20880;SDS011;10600;53.096;8.802;2024-02-26T05:10:51;102.32;;;38.97;;
20880;SDS011;10600;53.096;8.802;2024-02-26T05:11:51;95.10;;;36.78;;
20880;SDS011;10600;53.096;8.802;2024-02-26T05:12:52;100.72;;;38.63;;
20880;SDS011;10600;53.096;8.802;2024-02-26T05:13:53;105.93;;;38.67;;
20880;SDS011;10600;53.096;8.802;2024-02-26T05:14:53;100.45;;;36.88;;
20880;SDS011;10600;53.096;8.802;2024-02-26T05:15:54;100.60;;;38.40;;
20880;SDS011;10600;53.096;8.802;2024-02-26T05:16:54;99.25;;;38.17;;
20880;SDS011;10600;53.096;8.802;2024-02-26T05:17:56;103.38;;;40.40;;
20880;SDS011;10600;53.096;8.802;2024-02-26T05:18:57;109.38;;;43.55;;
20880;SDS011;10600;53.096;8.802;2024-02-26T05:19:57;100.32;;;38.05;;
20880;SDS011;10600;53.096;8.802;2024-02-26T05:20:58;101.07;;;39.92;;
20880;SDS011;10600;53.096;8.802;2024-02-26T05:21:58;101.82;;;37.33;;
20880;SDS011;10600;53.096;8.802;2024-02-26T05:22:59;96.32;;;36.47;;
20880;SDS011;10600;53.096;8.802;2024-02-26T05:23:59;99.88;;;38.55;;
20880;SDS011;10600;53.096;8.802;2024-02-26T05:25:00;97.88;;;37.97;;
20880;SDS011;10600;53.096;8.802;2024-02-26T05:26:00;95.18;;;36.80;;
20880;SDS011;10600;53.096;8.802;2024-02-26T05:27:01;96.72;;;38.13;;
20880;SDS011;10600;53.096;8.802;2024-02-26T05:28:01;104.65;;;39.13;;
20880;SDS011;10600;53.096;8.802;2024-02-26T05:29:02;99.30;;;37.38;;
20880;SDS011;10600;53.096;8.802;2024-02-26T05:30:03;91.25;;;36.20;;
20880;SDS011;10600;53.096;8.802;2024-02-26T05:31:04;103.65;;;39.17;;
20880;SDS011;10600;53.096;8.802;2024-02-26T05:32:05;101.38;;;37.92;;
20880;SDS011;10600;53.096;8.802;2024-02-26T05:33:06;100.97;;;37.80;;
20880;SDS011;10600;53.096;8.802;2024-02-26T05:34:06;98.47;;;36.63;;
20880;SDS011;10600;53.096;8.802;2024-02-26T05:35:07;110.25;;;39.03;;
20880;SDS011;10600;53.096;8.802;2024-02-26T05:36:08;97.75;;;36.92;;
20880;SDS011;10600;53.096;8.802;2024-02-26T05:37:09;102.93;;;36.53;;
20880;SDS011;10600;53.096;8.802;2024-02-26T05:38:10;99.88;;;36.72;;
20880;SDS011;10600;53.096;8.802;2024-02-26T05:39:10;103.43;;;38.83;;
20880;SDS011;10600;53.096;8.802;2024-02-26T05:40:12;105.28;;;37.08;;
20880;SDS011;10600;53.096;8.802;2024-02-26T05:41:12;101.82;;;36.83;;
20880;SDS011;10600;53.096;8.802;2024-02-26T05:42:15;105.85;;;38.22;;
20880;SDS011;10600;53.096;8.802;2024-02-26T05:43:16;103.72;;;42.85;;
20880;SDS011;10600;53.096;8.802;2024-02-26T05:44:16;108.68;;;39.92;;
20880;SDS011;10600;53.096;8.802;2024-02-26T05:45:17;95.20;;;36.42;;
20880;SDS011;10600;53.096;8.802;2024-02-26T05:46:19;113.55;;;38.95;;
20880;SDS011;10600;53.096;8.802;2024-02-26T05:47:20;113.32;;;39.85;;
20880;SDS011;10600;53.096;8.802;2024-02-26T05:48:21;106.20;;;39.00;;
20880;SDS011;10600;53.096;8.802;2024-02-26T05:49:24;104.72;;;39.55;;
20880;SDS011;10600;53.096;8.802;2024-02-26T05:50:25;117.60;;;39.53;;
20880;SDS011;10600;53.096;8.802;2024-02-26T05:51:25;115.10;;;40.17;;
20880;SDS011;10600;53.096;8.802;2024-02-26T05:52:26;123.93;;;41.38;;
20880;SDS011;10600;53.096;8.802;2024-02-26T05:53:28;132.20;;;41.75;;
20880;SDS011;10600;53.096;8.802;2024-02-26T05:54:28;129.13;;;42.05;;